Asheboro, NC

5:23 AM EST on January 16, 2018 (GMT -0500)
Asheboro Municipal

Weather History for KHBI - March, 2014

Change the Weather History Date:

Sunday, March 30, 2014

  Actual Average Record
Temperature  
Mean Temperature 48 °F -  
Max Temperature 55 °F 68 °F 86 °F (1945)
Min Temperature 40 °F 47 °F 22 °F (1964)
Degree Days  
Heating Degree Days 18    
Moisture  
Dew Point 30 °F    
Average Humidity 52    
Maximum Humidity 85    
Minimum Humidity 29    
Precipitation  
Precipitation 0.00 in - - ()
Sea Level Pressure  
Sea Level Pressure 29.85 in    
Wind  
Wind Speed 11 mph (NW)    
Max Wind Speed 21 mph    
Max Gust Speed 34 mph    
Visibility 10 miles    
Events Rain    
Averages and records for this station are not official NWS values.
T = Trace of Precipitation, MM = Missing Value Source: NWS Daily Summary

Daily Weather History Graph

Daily Weather History Graph

Search for Another Location

Airport or City:

Trip Planner

Search our weather history database for the weather conditions in past years. The results will help you decide how hot, cold, wet, or windy it might be!

Date:

Astronomy

Mar. 30, 2014 Rise Set
Actual Time 7:08 AM EDT 7:39 PM EDT
Civil Twilight 6:43 AM EDT 8:05 PM EDT
Nautical Twilight 6:13 AM EDT 8:35 PM EDT
Astronomical Twilight 5:42 AM EDT 9:06 PM EDT
Moon 6:53 AM EDT (3/30) 7:49 PM EDT (3/30)
Length of Visible Light 13h 21m
Length of Day
12h 30m
Waning Crescent, 0% of the Moon is Illuminated
Mar 30
Waning Crescent
Mar 30
New
Apr 7
First Quarter
Apr 15
Full
Apr 22
Last Quarter

Hourly Weather History & Observations

Time (EDT) Temp. Windchill Dew Point Humidity Pressure Visibility Wind Dir Wind Speed Gust Speed Precip Events Conditions
12:15 AM 55.9 °F - 51.4 °F 85% 29.66 in 10.0 mi NNW 6.9 mph - N/A   Light Drizzle
12:35 AM 54.9 °F - 48.0 °F 78% 29.67 in 10.0 mi NW 12.7 mph - N/A   Overcast
12:55 AM 53.8 °F - 45.5 °F 74% 29.69 in 10.0 mi WNW 16.1 mph 23.0 mph N/A   Overcast
1:15 AM 52.5 °F - 43.0 °F 70% 29.70 in 10.0 mi WNW 17.3 mph 27.6 mph N/A   Overcast
1:35 AM 50.5 °F - 40.6 °F 69% 29.71 in 10.0 mi NW 9.2 mph 26.5 mph N/A   Mostly Cloudy
1:55 AM 49.1 °F - 40.8 °F 73% 29.71 in 10.0 mi NW 4.6 mph - N/A   Mostly Cloudy
2:15 AM 48.2 °F - 40.5 °F 75% 29.71 in 10.0 mi NW 5.8 mph - N/A   Scattered Clouds
2:35 AM 47.5 °F - 39.9 °F 75% 29.71 in 10.0 mi NW 8.1 mph - N/A   Mostly Cloudy
2:55 AM 47.3 °F - 37.2 °F 68% 29.71 in 10.0 mi WNW 12.7 mph 19.6 mph N/A   Overcast
3:15 AM 46.4 °F 41.1 °F 34.3 °F 63% 29.71 in 10.0 mi NW 11.5 mph 23.0 mph N/A   Mostly Cloudy
3:35 AM 45.3 °F 39.7 °F 32.9 °F 62% 29.72 in 10.0 mi WNW 11.5 mph 19.6 mph N/A   Drizzle
3:55 AM 44.1 °F 39.5 °F 32.0 °F 63% 29.72 in 10.0 mi WNW 8.1 mph 23.0 mph N/A   Scattered Clouds
4:15 AM 43.7 °F 38.1 °F 31.3 °F 62% 29.72 in 10.0 mi NW 10.4 mph 20.7 mph N/A   Mostly Cloudy
4:35 AM 43.0 °F 40.3 °F 31.1 °F 63% 29.72 in 10.0 mi NW 4.6 mph 17.3 mph N/A   Overcast
4:55 AM 42.8 °F - 31.1 °F 63% 29.72 in 10.0 mi Calm Calm - N/A   Overcast
5:15 AM 42.1 °F 35.7 °F 30.0 °F 62% 29.73 in 10.0 mi NW 11.5 mph 18.4 mph N/A   Mostly Cloudy
5:35 AM 41.9 °F 35.9 °F 28.6 °F 59% 29.73 in 10.0 mi NW 10.4 mph 19.6 mph N/A   Overcast
5:55 AM 41.7 °F 34.8 °F 28.2 °F 59% 29.74 in 10.0 mi NW 12.7 mph 24.2 mph N/A   Overcast
6:15 AM 41.2 °F 36.6 °F 28.9 °F 62% 29.75 in 10.0 mi NW 6.9 mph 24.2 mph N/A   Overcast
6:35 AM 41.4 °F 35.7 °F 28.8 °F 61% 29.76 in 10.0 mi NW 9.2 mph 20.7 mph N/A Rain Light Rain
6:55 AM 41.4 °F 38.4 °F 28.4 °F 60% 29.76 in 10.0 mi NW 4.6 mph 23.0 mph N/A   Overcast
7:15 AM 41.4 °F 35.2 °F 28.6 °F 60% 29.77 in 10.0 mi NW 10.4 mph 17.3 mph N/A   Overcast
7:35 AM 41.4 °F 34.3 °F 28.0 °F 59% 29.78 in 10.0 mi NW 12.7 mph 20.7 mph N/A   Overcast
7:55 AM 41.2 °F 34.5 °F 28.4 °F 60% 29.79 in 10.0 mi West 11.5 mph 18.4 mph N/A   Light Drizzle
8:15 AM 40.3 °F 31.9 °F 29.7 °F 66% 29.81 in 10.0 mi WNW 16.1 mph 25.3 mph N/A Rain Light Rain
8:35 AM 40.1 °F 31.6 °F 30.0 °F 67% 29.82 in 10.0 mi NW 16.1 mph 25.3 mph N/A   Scattered Clouds
8:55 AM 40.5 °F 33.2 °F 30.0 °F 66% 29.83 in 10.0 mi NW 12.7 mph 23.0 mph N/A   Scattered Clouds
9:15 AM 40.1 °F 33.2 °F 30.7 °F 69% 29.84 in 10.0 mi NW 11.5 mph 27.6 mph N/A Rain Light Rain
9:35 AM 40.1 °F 34.1 °F 31.1 °F 70% 29.85 in 10.0 mi NW 9.2 mph 21.9 mph N/A   Mostly Cloudy
9:55 AM 40.3 °F 34.4 °F 31.8 °F 72% 29.85 in 10.0 mi WNW 9.2 mph 20.7 mph N/A   Scattered Clouds
10:15 AM 42.1 °F 36.6 °F 32.0 °F 67% 29.86 in 10.0 mi WNW 9.2 mph 16.1 mph N/A   Scattered Clouds
10:35 AM 43.9 °F 37.5 °F 31.6 °F 62% 29.86 in 10.0 mi NW 12.7 mph 21.9 mph N/A   Mostly Cloudy
10:55 AM 45.3 °F 41.6 °F 31.5 °F 58% 29.86 in 10.0 mi NW 6.9 mph 23.0 mph N/A   Mostly Cloudy
11:15 AM 45.9 °F 38.8 °F 30.4 °F 55% 29.86 in 10.0 mi NW 17.3 mph 25.3 mph N/A   Mostly Cloudy
11:35 AM 47.7 °F - 30.9 °F 52% 29.86 in 10.0 mi NW 16.1 mph 24.2 mph N/A   Scattered Clouds
11:55 AM 47.8 °F - 29.7 °F 49% 29.87 in 10.0 mi NW 19.6 mph 28.8 mph N/A   Scattered Clouds
12:15 PM 49.5 °F - 30.7 °F 49% 29.87 in 10.0 mi NW 16.1 mph 25.3 mph N/A   Scattered Clouds
12:35 PM 49.6 °F - 31.1 °F 49% 29.87 in 10.0 mi NW 12.7 mph 23.0 mph N/A   Scattered Clouds
12:55 PM 50.2 °F - 30.0 °F 46% 29.88 in 10.0 mi NNW 17.3 mph 32.2 mph N/A   Scattered Clouds
1:15 PM 50.2 °F - 30.4 °F 47% 29.88 in 10.0 mi NNW 13.8 mph 24.2 mph N/A   Scattered Clouds
1:35 PM 52.0 °F - 31.1 °F 45% 29.88 in 10.0 mi WNW 13.8 mph 24.2 mph N/A   Scattered Clouds
1:55 PM 51.1 °F - 30.2 °F 45% 29.87 in 10.0 mi NW 16.1 mph 25.3 mph N/A   Mostly Cloudy
2:15 PM 51.1 °F - 30.6 °F 45% 29.87 in 10.0 mi NW 17.3 mph 29.9 mph N/A   Scattered Clouds
2:35 PM 52.2 °F - 31.1 °F 45% 29.87 in 10.0 mi NW 17.3 mph 31.1 mph N/A   Scattered Clouds
2:55 PM 51.8 °F - 31.6 °F 46% 29.87 in 10.0 mi NNW 12.7 mph 23.0 mph N/A   Mostly Cloudy
3:15 PM 51.4 °F - 31.1 °F 46% 29.87 in 10.0 mi NNW 11.5 mph 31.1 mph N/A   Scattered Clouds
3:35 PM 52.0 °F - 30.9 °F 45% 29.88 in 10.0 mi WNW 15.0 mph 26.5 mph N/A   Scattered Clouds
3:55 PM 51.6 °F - 30.2 °F 44% 29.88 in 10.0 mi NW 15.0 mph 28.8 mph N/A   Clear
4:15 PM 52.7 °F - 29.7 °F 41% 29.87 in 10.0 mi NNW 15.0 mph 24.2 mph N/A   Clear
4:35 PM 54.3 °F - 27.9 °F 36% 29.88 in 10.0 mi NW 19.6 mph 27.6 mph N/A   Clear
4:55 PM 54.9 °F - 27.7 °F 35% 29.88 in 10.0 mi NNW 16.1 mph 28.8 mph N/A   Clear
5:15 PM 55.4 °F - 24.3 °F 30% 29.89 in 10.0 mi NW 20.7 mph 28.8 mph N/A   Clear
5:35 PM 55.8 °F - 24.4 °F 30% 29.90 in 10.0 mi NNW 15.0 mph 28.8 mph N/A   Clear
5:55 PM 55.0 °F - 23.5 °F 30% 29.91 in 10.0 mi NW 18.4 mph 26.5 mph N/A   Clear
6:15 PM 54.5 °F - 22.6 °F 29% 29.92 in 10.0 mi NW 15.0 mph 26.5 mph N/A   Clear
6:35 PM 54.5 °F - 22.6 °F 29% 29.93 in 10.0 mi NW 11.5 mph 19.6 mph N/A   Clear
6:55 PM 53.8 °F - 23.0 °F 30% 29.94 in 10.0 mi NNW 10.4 mph 19.6 mph N/A   Clear
7:15 PM 53.2 °F - 23.0 °F 31% 29.94 in 10.0 mi NNW 11.5 mph 21.9 mph N/A   Clear
7:35 PM 52.5 °F - 22.5 °F 31% 29.96 in 10.0 mi NW 15.0 mph 24.2 mph N/A   Clear
7:55 PM 51.3 °F - 22.8 °F 33% 29.97 in 10.0 mi NNW 10.4 mph 18.4 mph N/A   Clear
8:15 PM 50.4 °F - 22.3 °F 33% 29.98 in 10.0 mi NNW 15.0 mph 34.5 mph N/A   Clear
8:35 PM 49.6 °F - 22.5 °F 34% 29.99 in 10.0 mi NNW 12.7 mph 18.4 mph N/A   Clear
8:55 PM 49.1 °F - 23.0 °F 36% 30.00 in 10.0 mi Calm Calm - N/A   Clear
9:15 PM 47.5 °F - 23.5 °F 39% 30.00 in 10.0 mi Calm Calm - N/A   Clear
9:35 PM 47.5 °F - 24.6 °F 41% 30.00 in 10.0 mi NW 5.8 mph - N/A   Clear
9:55 PM 47.1 °F - 25.3 °F 43% 30.00 in 10.0 mi WNW 8.1 mph - N/A   Clear
10:15 PM 47.3 °F - 25.7 °F 43% 30.01 in 10.0 mi WNW 4.6 mph - N/A   Clear
10:35 PM 47.1 °F - 25.7 °F 43% 30.01 in 10.0 mi Calm Calm - N/A   Clear
10:55 PM 46.4 °F - 26.2 °F 45% 30.02 in 10.0 mi Calm Calm - N/A   Clear
11:15 PM 45.9 °F - 26.2 °F 46% 30.03 in 10.0 mi Calm Calm - N/A   Clear
11:35 PM 45.5 °F - 26.2 °F 47% 30.03 in 10.0 mi Calm Calm - N/A   Clear
11:55 PM 45.5 °F - 26.4 °F 47% 30.03 in 10.0 mi Calm Calm - N/A   Clear